Time;durP1;ratioP1;P1;durP2;ratioP2;P2;SDS_P1;SDS_P2;PMS_P1;PMS_P2;Temp;Humidity;BMP_temperature;BMP_pressure;BME280_temperature;BME280_humidity;BME280_pressure;Samples;Min_cycle;Max_cycle;Signal;HPM_P1;HPM_P2
2023/08/22 00:00:51;;;;;;;7.70;5.07;;;27.10;65.70;;;;;;5115452;28;20026;-70
2023/08/22 00:03:16;;;;;;;5.78;5.18;;;27.10;66.10;;;;;;5115273;28;20460;-69
2023/08/22 00:05:42;;;;;;;10.05;5.93;;;27.00;66.20;;;;;;5115275;28;20067;-69
2023/08/22 00:08:08;;;;;;;8.15;5.05;;;27.10;66.90;;;;;;5114923;28;20521;-70
2023/08/22 00:10:34;;;;;;;8.98;5.75;;;27.00;66.50;;;;;;5115381;28;20115;-70
2023/08/22 00:13:00;;;;;;;7.78;5.53;;;27.00;66.80;;;;;;5131321;27;20034;-70
2023/08/22 00:15:26;;;;;;;6.43;5.65;;;27.00;67.20;;;;;;5135325;27;20102;-70
2023/08/22 00:17:52;;;;;;;8.38;6.03;;;26.90;67.70;;;;;;5135411;27;20527;-70
2023/08/22 00:20:18;;;;;;;7.88;5.72;;;27.00;68.20;;;;;;5135226;27;20098;-70
2023/08/22 00:22:44;;;;;;;8.25;6.07;;;27.00;68.30;;;;;;5135703;27;20399;-70
2023/08/22 00:25:11;;;;;;;14.52;6.35;;;26.90;68.70;;;;;;5135154;27;20027;-69
2023/08/22 00:27:37;;;;;;;13.43;6.15;;;26.90;68.80;;;;;;5135449;27;20031;-69
2023/08/22 00:30:03;;;;;;;10.30;6.30;;;26.90;69.10;;;;;;5135075;27;20528;-70
2023/08/22 00:32:30;;;;;;;15.82;7.20;;;26.90;69.50;;;;;;5135659;27;20027;-70
2023/08/22 00:34:56;;;;;;;7.72;5.53;;;26.80;69.50;;;;;;5134972;27;20023;-70
2023/08/22 00:37:21;;;;;;;15.10;5.93;;;26.80;69.70;;;;;;5135052;27;20035;-70
2023/08/22 00:39:47;;;;;;;12.00;6.47;;;26.80;70.30;;;;;;5135362;27;20015;-69
2023/08/22 00:42:13;;;;;;;8.48;6.60;;;26.70;70.90;;;;;;5134557;27;20382;-70
2023/08/22 00:44:39;;;;;;;8.63;6.20;;;26.70;71.10;;;;;;5117203;27;20023;-70
2023/08/22 00:47:05;;;;;;;10.75;6.65;;;26.70;70.90;;;;;;5134692;27;20077;-71
2023/08/22 00:49:32;;;;;;;9.23;6.10;;;26.70;71.20;;;;;;5134877;27;20047;-70
2023/08/22 00:51:59;;;;;;;11.13;6.90;;;26.60;71.30;;;;;;5134583;27;20038;-70
2023/08/22 00:54:27;;;;;;;10.95;7.53;;;26.60;71.80;;;;;;5135053;27;20023;-70
2023/08/22 00:56:53;;;;;;;9.57;6.10;;;26.60;72.00;;;;;;5134714;27;20027;-70
2023/08/22 00:59:19;;;;;;;13.60;6.63;;;26.60;72.40;;;;;;5134270;27;20030;-69
2023/08/22 01:01:46;;;;;;;9.25;6.30;;;26.50;72.60;;;;;;5134761;27;20031;-70
2023/08/22 01:04:11;;;;;;;10.02;6.43;;;26.50;72.60;;;;;;5134334;27;20068;-69
2023/08/22 01:06:49;;;;;;;12.27;7.07;;;26.50;72.90;;;;;;5134551;27;20039;-69
2023/08/22 01:09:40;;;;;;;10.65;6.75;;;26.50;72.90;;;;;;5134231;27;20031;-69
2023/08/22 01:12:44;;;;;;;8.18;6.35;;;26.40;73.00;;;;;;5134277;27;20444;-69
2023/08/22 01:15:32;;;;;;;8.25;6.80;;;26.40;73.30;;;;;;5102413;27;20084;-68
2023/08/22 01:18:01;;;;;;;11.15;7.47;;;26.40;73.40;;;;;;5134372;27;20046;-72
2023/08/22 01:20:27;;;;;;;10.93;6.78;;;26.30;73.60;;;;;;5134748;27;20405;-69
2023/08/22 01:22:53;;;;;;;14.15;7.78;;;26.30;73.90;;;;;;5134420;27;20050;-69
2023/08/22 01:25:19;;;;;;;11.10;6.15;;;26.30;74.20;;;;;;5133645;27;20416;-70
2023/08/22 01:28:08;;;;;;;14.13;6.57;;;26.30;73.90;;;;;;5133383;27;20160;-69
2023/08/22 01:30:43;;;;;;;8.18;6.10;;;26.30;73.90;;;;;;5134188;27;20030;-68
2023/08/22 01:33:18;;;;;;;11.43;6.80;;;26.30;74.00;;;;;;5133799;27;20023;-69
2023/08/22 01:35:48;;;;;;;6.70;6.00;;;26.20;73.70;;;;;;5134024;27;20072;-68
2023/08/22 01:38:15;;;;;;;10.50;6.30;;;26.20;73.40;;;;;;5134033;27;20459;-69
2023/08/22 01:40:41;;;;;;;9.45;6.53;;;26.20;73.50;;;;;;5134370;27;20029;-69
2023/08/22 01:43:07;;;;;;;9.75;6.05;;;26.20;73.40;;;;;;5133557;27;20081;-69
2023/08/22 01:45:32;;;;;;;12.02;6.82;;;26.20;73.20;;;;;;5133903;27;20459;-69
2023/08/22 01:47:58;;;;;;;7.53;6.63;;;26.20;73.60;;;;;;5134077;27;20144;-69
2023/08/22 01:50:23;;;;;;;9.50;6.47;;;26.20;73.40;;;;;;5131559;27;20043;-69
2023/08/22 01:52:49;;;;;;;15.93;5.95;;;26.20;73.30;;;;;;5114176;28;20098;-69
2023/08/22 01:55:15;;;;;;;10.10;6.07;;;26.20;73.50;;;;;;5112940;28;20034;-69
2023/08/22 01:57:41;;;;;;;13.10;6.68;;;26.20;73.60;;;;;;5112919;28;20157;-68
2023/08/22 02:00:07;;;;;;;10.57;6.60;;;26.10;73.60;;;;;;5112912;28;20073;-68
2023/08/22 02:02:33;;;;;;;10.02;6.40;;;26.10;73.80;;;;;;5113245;28;20024;-69
2023/08/22 02:04:58;;;;;;;10.02;6.78;;;26.10;73.80;;;;;;5112973;28;20019;-69
2023/08/22 02:07:24;;;;;;;10.80;6.20;;;26.10;73.60;;;;;;5112707;28;20035;-69
2023/08/22 02:09:50;;;;;;;7.03;6.32;;;26.00;73.60;;;;;;5095039;28;20024;-69
2023/08/22 02:12:15;;;;;;;8.52;6.30;;;26.10;73.50;;;;;;5112564;28;20035;-69
2023/08/22 02:14:41;;;;;;;9.98;6.82;;;26.10;73.80;;;;;;5128254;28;20046;-70
2023/08/22 02:17:07;;;;;;;8.90;6.68;;;26.00;73.70;;;;;;5133071;28;20418;-69
2023/08/22 02:19:32;;;;;;;11.48;6.18;;;26.10;73.60;;;;;;5133666;28;20019;-69
2023/08/22 02:21:58;;;;;;;8.10;5.97;;;26.00;73.50;;;;;;5133776;28;20076;-69
2023/08/22 02:24:23;;;;;;;8.93;6.22;;;26.00;74.30;;;;;;5133313;28;20023;-69
2023/08/22 02:26:49;;;;;;;11.80;6.45;;;26.00;74.00;;;;;;5133264;28;20027;-69
2023/08/22 02:29:15;;;;;;;9.80;6.68;;;26.00;74.00;;;;;;5132840;28;20046;-69
2023/08/22 02:31:40;;;;;;;9.13;6.78;;;26.00;73.90;;;;;;5133245;28;20027;-69
2023/08/22 02:34:06;;;;;;;12.18;6.32;;;26.00;73.90;;;;;;5114678;28;20023;-70
2023/08/22 02:36:31;;;;;;;10.77;6.65;;;26.00;74.10;;;;;;5133509;28;20380;-69
2023/08/22 02:38:57;;;;;;;11.77;6.38;;;26.00;74.20;;;;;;5136720;27;20148;-69
2023/08/22 02:41:23;;;;;;;12.82;6.47;;;26.00;74.10;;;;;;5137145;27;20024;-69
2023/08/22 02:43:48;;;;;;;7.43;6.03;;;26.00;73.90;;;;;;5137228;27;20023;-69
2023/08/22 02:46:14;;;;;;;12.35;6.47;;;26.00;74.00;;;;;;5118568;27;20035;-69
2023/08/22 02:48:40;;;;;;;14.10;6.95;;;26.00;74.20;;;;;;5137472;27;20042;-69
2023/08/22 02:51:05;;;;;;;8.57;6.50;;;25.90;75.20;;;;;;5137443;27;20059;-69
2023/08/22 02:53:31;;;;;;;12.27;6.50;;;25.90;74.80;;;;;;5137203;27;20430;-69
2023/08/22 02:55:59;;;;;;;9.63;5.97;;;25.90;74.90;;;;;;5137290;27;20113;-69
2023/08/22 02:58:25;;;;;;;8.25;6.43;;;25.90;74.90;;;;;;5136791;27;20068;-69
2023/08/22 03:00:52;;;;;;;7.28;5.93;;;25.90;75.10;;;;;;5137172;27;20023;-69
2023/08/22 03:03:18;;;;;;;7.68;5.53;;;25.80;75.30;;;;;;5136689;27;20023;-69
2023/08/22 03:05:44;;;;;;;9.20;5.88;;;25.70;76.10;;;;;;5136947;27;20027;-69
2023/08/22 03:08:09;;;;;;;7.45;6.63;;;25.70;76.40;;;;;;5136635;27;20023;-69
2023/08/22 03:10:35;;;;;;;9.15;6.07;;;25.70;76.20;;;;;;5118502;27;20029;-69
2023/08/22 03:13:01;;;;;;;7.20;5.90;;;25.70;76.60;;;;;;5136921;27;20023;-69
2023/08/22 03:15:26;;;;;;;6.57;5.90;;;25.70;76.90;;;;;;5136461;27;20050;-69
2023/08/22 03:17:52;;;;;;;8.98;6.53;;;25.70;76.80;;;;;;5137230;27;20023;-69
2023/08/22 03:20:17;;;;;;;8.07;6.38;;;25.70;76.80;;;;;;5136162;27;20466;-68
2023/08/22 03:22:43;;;;;;;7.68;6.05;;;25.60;76.90;;;;;;5136760;27;20158;-68
2023/08/22 03:25:09;;;;;;;6.57;5.65;;;25.60;77.40;;;;;;5136736;27;20029;-69
2023/08/22 03:27:34;;;;;;;13.18;6.28;;;25.50;77.60;;;;;;5117795;27;20032;-69
2023/08/22 03:30:00;;;;;;;11.52;6.60;;;25.50;78.00;;;;;;5136636;27;20135;-69
2023/08/22 03:32:26;;;;;;;9.38;5.97;;;25.50;78.50;;;;;;5135888;27;20030;-70
2023/08/22 03:34:51;;;;;;;10.55;6.35;;;25.50;78.70;;;;;;5132781;27;20023;-70
2023/08/22 03:37:17;;;;;;;9.73;6.43;;;25.50;79.40;;;;;;5136141;27;20053;-70
2023/08/22 03:39:42;;;;;;;11.15;6.60;;;25.40;79.90;;;;;;5136089;27;20061;-70
2023/08/22 03:42:08;;;;;;;10.20;7.00;;;25.30;80.20;;;;;;5136452;27;20107;-69
2023/08/22 03:44:34;;;;;;;9.45;6.60;;;25.40;80.50;;;;;;5135852;27;20027;-69
2023/08/22 03:46:59;;;;;;;10.98;6.47;;;25.30;80.70;;;;;;5136123;27;20455;-69
2023/08/22 03:49:26;;;;;;;7.50;6.65;;;25.30;81.00;;;;;;5134843;27;20059;-70
2023/08/22 03:51:51;;;;;;;9.32;6.13;;;25.20;81.80;;;;;;5135573;27;20027;-70
2023/08/22 03:54:17;;;;;;;7.70;6.70;;;25.20;82.10;;;;;;5117218;27;20043;-70
2023/08/22 03:56:42;;;;;;;15.05;6.88;;;25.20;82.30;;;;;;5115250;28;20046;-70
2023/08/22 03:59:08;;;;;;;8.55;7.20;;;25.10;82.50;;;;;;5115187;28;20032;-70
2023/08/22 04:01:34;;;;;;;10.05;6.93;;;25.10;83.50;;;;;;5115073;28;20034;-69
2023/08/22 04:03:59;;;;;;;8.30;7.40;;;25.00;84.50;;;;;;5115540;28;20533;-69
2023/08/22 04:06:25;;;;;;;11.38;7.18;;;25.00;85.50;;;;;;5114566;28;20510;-70
2023/08/22 04:08:51;;;;;;;9.50;7.78;;;25.00;86.40;;;;;;5115358;28;20023;-69
2023/08/22 04:11:16;;;;;;;13.55;8.52;;;25.00;87.30;;;;;;5114886;28;20372;-70
2023/08/22 04:13:42;;;;;;;11.93;8.60;;;25.00;88.20;;;;;;5115288;28;20076;-70
2023/08/22 04:16:08;;;;;;;12.00;8.55;;;24.90;88.80;;;;;;5115236;28;20529;-69
2023/08/22 04:18:34;;;;;;;11.63;7.82;;;24.80;89.60;;;;;;5126171;27;20020;-69
2023/08/22 04:20:59;;;;;;;9.48;7.65;;;24.80;90.10;;;;;;5135549;27;20045;-69
2023/08/22 04:23:25;;;;;;;9.65;7.78;;;24.80;90.00;;;;;;5135170;27;20023;-70
2023/08/22 04:25:51;;;;;;;11.85;7.25;;;24.70;90.20;;;;;;5117406;27;20488;-70
2023/08/22 04:28:17;;;;;;;12.48;8.40;;;24.70;90.50;;;;;;5134793;27;20023;-70
2023/08/22 04:30:43;;;;;;;9.85;7.60;;;24.70;90.70;;;;;;5135483;27;20027;-70
2023/08/22 04:33:09;;;;;;;8.57;7.60;;;24.60;91.00;;;;;;5135448;27;20481;-69
2023/08/22 04:35:34;;;;;;;13.38;7.55;;;24.50;91.20;;;;;;5134678;27;20098;-69
2023/08/22 04:38:00;;;;;;;11.20;7.70;;;24.60;91.40;;;;;;5135398;27;20470;-70
2023/08/22 04:40:25;;;;;;;10.20;8.30;;;24.60;91.40;;;;;;5134571;27;20083;-70
2023/08/22 04:42:51;;;;;;;9.32;7.80;;;24.60;91.50;;;;;;5135440;27;20523;-69
2023/08/22 04:45:17;;;;;;;11.45;7.75;;;24.60;91.60;;;;;;5116577;27;20023;-72
2023/08/22 04:47:43;;;;;;;8.80;7.80;;;24.60;91.50;;;;;;5134996;27;20486;-69
2023/08/22 04:50:09;;;;;;;11.50;8.23;;;24.70;91.40;;;;;;5134874;27;20051;-69
2023/08/22 04:52:34;;;;;;;9.05;7.22;;;24.70;91.10;;;;;;5134230;27;20460;-69
2023/08/22 04:55:00;;;;;;;11.32;7.45;;;24.70;90.90;;;;;;5134786;27;20031;-69
2023/08/22 04:57:26;;;;;;;8.68;7.78;;;24.80;90.50;;;;;;5115186;27;20037;-70
2023/08/22 04:59:53;;;;;;;10.05;7.28;;;24.80;90.20;;;;;;5134516;27;20058;-69
2023/08/22 05:02:21;;;;;;;10.90;7.90;;;24.80;90.30;;;;;;5133660;27;20023;-71
2023/08/22 05:04:47;;;;;;;8.23;7.15;;;24.70;90.30;;;;;;5134298;27;20031;-70
2023/08/22 05:07:13;;;;;;;13.57;7.85;;;24.70;90.30;;;;;;5134639;27;20122;-70
2023/08/22 05:09:38;;;;;;;10.57;7.03;;;24.70;90.50;;;;;;5134172;27;20422;-69
2023/08/22 05:12:04;;;;;;;9.70;7.45;;;24.60;90.70;;;;;;5134356;27;20032;-68
2023/08/22 05:14:32;;;;;;;11.38;8.00;;;24.70;90.60;;;;;;5134138;27;20034;-68
2023/08/22 05:16:58;;;;;;;13.98;8.05;;;24.60;90.70;;;;;;5134510;27;20470;-68
2023/08/22 05:19:23;;;;;;;8.77;7.88;;;24.70;90.70;;;;;;5133795;27;20023;-69
2023/08/22 05:21:49;;;;;;;13.05;7.53;;;24.70;90.60;;;;;;5134426;27;20102;-69
2023/08/22 05:24:14;;;;;;;9.60;8.05;;;24.70;90.80;;;;;;5134028;27;20065;-69
2023/08/22 05:26:40;;;;;;;11.38;7.18;;;24.70;90.90;;;;;;5115502;27;20031;-70
2023/08/22 05:29:06;;;;;;;9.10;7.65;;;24.70;91.00;;;;;;5134209;27;20034;-70
2023/08/22 05:31:32;;;;;;;10.63;8.27;;;24.70;91.00;;;;;;5133456;27;20023;-69
2023/08/22 05:33:58;;;;;;;11.55;8.27;;;24.80;91.00;;;;;;5133986;27;20065;-69
2023/08/22 05:36:24;;;;;;;10.23;8.25;;;24.80;91.10;;;;;;5133967;27;20105;-69
2023/08/22 05:38:49;;;;;;;13.50;8.50;;;24.90;91.10;;;;;;5133852;27;20042;-69
2023/08/22 05:41:16;;;;;;;10.70;7.88;;;25.00;91.00;;;;;;5133941;27;20089;-70
2023/08/22 05:43:42;;;;;;;9.20;7.95;;;25.10;90.90;;;;;;5133504;27;20049;-69
2023/08/22 05:46:08;;;;;;;10.82;8.23;;;25.10;91.00;;;;;;5133358;27;20043;-69
2023/08/22 05:48:33;;;;;;;11.00;8.52;;;25.10;91.10;;;;;;5133446;27;20058;-69
2023/08/22 05:51:01;;;;;;;10.63;7.50;;;25.10;91.00;;;;;;5133469;27;20048;-70
2023/08/22 05:53:27;;;;;;;11.00;8.15;;;25.30;91.20;;;;;;5133330;27;20031;-70
2023/08/22 05:55:53;;;;;;;12.57;7.88;;;25.50;90.80;;;;;;5133368;27;20026;-70
2023/08/22 05:58:18;;;;;;;10.20;7.47;;;25.70;90.00;;;;;;5133708;27;20061;-70
2023/08/22 06:00:44;;;;;;;14.10;7.85;;;26.10;88.90;;;;;;5119914;27;20066;-70
2023/08/22 06:03:10;;;;;;;8.75;7.75;;;26.30;87.30;;;;;;5112858;28;20495;-70
2023/08/22 06:05:35;;;;;;;9.65;7.57;;;26.60;85.40;;;;;;5112376;28;20038;-70
2023/08/22 06:08:01;;;;;;;15.25;7.45;;;26.90;84.60;;;;;;5113130;28;20490;-70
2023/08/22 06:10:27;;;;;;;7.93;7.05;;;27.30;83.00;;;;;;5112508;28;20026;-70
2023/08/22 06:12:52;;;;;;;10.48;7.18;;;27.70;81.50;;;;;;5116200;28;20026;-69
2023/08/22 06:15:18;;;;;;;12.40;7.15;;;28.20;79.20;;;;;;5119661;28;20460;-69
2023/08/22 06:17:43;;;;;;;10.88;6.60;;;28.60;77.50;;;;;;5119470;28;20054;-70
2023/08/22 06:20:09;;;;;;;11.90;7.38;;;29.00;74.40;;;;;;5119697;28;20015;-69
2023/08/22 06:22:35;;;;;;;7.95;6.35;;;29.40;73.40;;;;;;5119388;28;20023;-69
2023/08/22 06:25:04;;;;;;;8.27;6.65;;;29.90;71.60;;;;;;5119637;27;20459;-69
2023/08/22 06:27:30;;;;;;;9.20;6.90;;;30.10;70.60;;;;;;5138605;27;20028;-70
2023/08/22 06:29:56;;;;;;;10.82;6.78;;;30.30;68.90;;;;;;5140410;27;20027;-70
2023/08/22 06:32:22;;;;;;;10.80;7.32;;;30.40;68.50;;;;;;5140631;27;20356;-70
2023/08/22 06:34:48;;;;;;;10.93;7.35;;;30.50;67.80;;;;;;5139814;27;20031;-70
2023/08/22 06:37:14;;;;;;;9.70;7.00;;;30.70;66.70;;;;;;5140010;27;20096;-70
2023/08/22 06:39:39;;;;;;;6.57;5.82;;;30.70;66.40;;;;;;5140142;27;20028;-70
2023/08/22 06:42:05;;;;;;;12.40;7.20;;;30.90;66.30;;;;;;5139942;27;20031;-70
2023/08/22 06:44:31;;;;;;;7.97;7.15;;;31.00;65.70;;;;;;5139472;27;20140;-70
2023/08/22 06:46:57;;;;;;;11.48;6.68;;;31.30;64.70;;;;;;5139743;27;20118;-70
2023/08/22 06:49:22;;;;;;;8.15;6.93;;;31.50;63.80;;;;;;5139887;27;20043;-70
2023/08/22 06:51:48;;;;;;;8.75;6.22;;;31.70;63.60;;;;;;5121109;27;20031;-69
2023/08/22 06:54:14;;;;;;;15.95;6.28;;;32.00;62.90;;;;;;5139929;27;20055;-70
2023/08/22 06:56:39;;;;;;;9.65;6.70;;;32.20;62.30;;;;;;5139315;27;20104;-70
2023/08/22 06:59:05;;;;;;;13.13;7.78;;;32.50;60.70;;;;;;5140115;27;20031;-70
2023/08/22 07:01:32;;;;;;;13.40;6.07;;;32.90;60.50;;;;;;5139652;27;20047;-69
2023/08/22 07:03:57;;;;;;;8.32;7.05;;;33.40;59.30;;;;;;5139976;27;20076;-69
2023/08/22 07:06:23;;;;;;;8.50;5.97;;;34.00;58.10;;;;;;5139882;27;20075;-69
2023/08/22 07:08:50;;;;;;;6.57;5.60;;;34.60;56.60;;;;;;5139372;27;20022;-69
2023/08/22 07:11:16;;;;;;;12.43;6.38;;;35.40;54.60;;;;;;5139509;27;20451;-70
2023/08/22 07:13:42;;;;;;;7.22;5.43;;;35.90;53.80;;;;;;5139631;27;20447;-69
2023/08/22 07:16:08;;;;;;;10.32;6.22;;;37.00;51.30;;;;;;5121203;27;20080;-70
2023/08/22 07:18:33;;;;;;;5.72;4.97;;;38.00;49.60;;;;;;5139209;27;20023;-69
2023/08/22 07:21:07;;;;;;;9.07;5.80;;;38.60;48.70;;;;;;5139465;27;20023;-69
2023/08/22 07:23:32;;;;;;;10.23;5.75;;;39.40;46.50;;;;;;5138137;27;20030;-69
2023/08/22 07:25:58;;;;;;;9.23;5.60;;;40.00;45.80;;;;;;5135768;27;20336;-69
2023/08/22 07:28:24;;;;;;;7.85;6.13;;;40.70;44.80;;;;;;5136494;27;20523;-69
2023/08/22 07:30:50;;;;;;;7.93;5.75;;;41.10;43.10;;;;;;5136324;27;20039;-69
2023/08/22 07:33:16;;;;;;;8.80;5.55;;;41.40;42.40;;;;;;5136539;27;20034;-68
2023/08/22 07:35:43;;;;;;;11.38;5.05;;;41.80;42.30;;;;;;5135890;27;20056;-69
2023/08/22 07:38:09;;;;;;;8.95;5.70;;;41.90;41.10;;;;;;5136333;27;20027;-68
2023/08/22 07:40:39;;;;;;;8.95;4.93;;;42.20;40.10;;;;;;5135733;27;20021;-69
2023/08/22 07:43:05;;;;;;;7.40;5.13;;;42.40;40.00;;;;;;5135938;27;20020;-69
2023/08/22 07:45:30;;;;;;;6.45;5.13;;;42.70;39.40;;;;;;5135638;27;20076;-71
2023/08/22 07:47:56;;;;;;;5.75;5.18;;;42.90;39.40;;;;;;5135868;27;20027;-68
2023/08/22 07:50:22;;;;;;;6.15;5.03;;;43.50;39.20;;;;;;5135706;27;20453;-70
2023/08/22 07:52:47;;;;;;;7.97;4.78;;;43.90;37.90;;;;;;5132724;27;20023;-68
2023/08/22 07:55:13;;;;;;;5.63;4.93;;;43.80;37.40;;;;;;5115636;28;20024;-69
2023/08/22 07:57:38;;;;;;;6.30;4.65;;;43.90;37.80;;;;;;5114980;28;20109;-70
2023/08/22 08:00:11;;;;;;;7.40;4.70;;;44.30;36.90;;;;;;5115361;28;20023;-70
2023/08/22 08:02:40;;;;;;;5.15;4.65;;;44.60;37.00;;;;;;5114570;28;20024;-70
2023/08/22 08:05:06;;;;;;;9.18;5.30;;;44.90;36.40;;;;;;5115296;28;20031;-70
2023/08/22 08:07:32;;;;;;;8.95;5.80;;;45.20;35.90;;;;;;5114894;28;20116;-74
2023/08/22 08:09:58;;;;;;;6.53;5.07;;;45.30;35.70;;;;;;5114876;28;20027;-70
2023/08/22 08:12:24;;;;;;;6.97;5.03;;;45.50;35.40;;;;;;5114784;28;20023;-69
2023/08/22 08:14:50;;;;;;;10.23;4.90;;;45.70;34.60;;;;;;5114397;28;20111;-69
2023/08/22 08:17:18;;;;;;;8.20;5.20;;;45.50;34.80;;;;;;5114801;28;20024;-69
2023/08/22 08:19:44;;;;;;;5.80;5.28;;;45.90;34.40;;;;;;5114615;28;20027;-68
2023/08/22 08:22:11;;;;;;;11.38;5.07;;;45.90;34.30;;;;;;5115101;28;20022;-68
2023/08/22 08:24:37;;;;;;;5.70;5.03;;;45.70;34.70;;;;;;5114429;28;20035;-69
2023/08/22 08:27:03;;;;;;;6.35;5.20;;;45.20;35.10;;;;;;5114678;28;20035;-69
2023/08/22 08:29:28;;;;;;;6.65;4.72;;;45.00;35.20;;;;;;5114773;28;20509;-69
2023/08/22 08:31:56;;;;;;;6.63;4.88;;;44.80;35.40;;;;;;5114160;28;20068;-70
2023/08/22 08:34:23;;;;;;;7.85;5.22;;;44.50;35.40;;;;;;5133610;27;20031;-70
2023/08/22 08:36:49;;;;;;;8.82;5.80;;;44.10;35.80;;;;;;5134382;27;20031;-70
2023/08/22 08:39:15;;;;;;;6.95;5.10;;;43.30;36.70;;;;;;5135270;27;20475;-70
2023/08/22 08:42:16;;;;;;;8.07;5.47;;;43.10;37.10;;;;;;5135047;27;20089;-71
2023/08/22 08:44:42;;;;;;;6.55;5.25;;;43.00;36.90;;;;;;5116669;27;20080;-69
2023/08/22 08:47:09;;;;;;;9.05;5.03;;;42.60;37.20;;;;;;5134930;27;20032;-69
2023/08/22 08:49:35;;;;;;;9.60;5.68;;;42.60;38.30;;;;;;5134768;27;20373;-70
2023/08/22 08:52:04;;;;;;;7.97;5.45;;;42.50;38.40;;;;;;5135048;27;20035;-70
2023/08/22 08:54:31;;;;;;;10.25;5.30;;;42.40;37.80;;;;;;5134757;27;20027;-70
2023/08/22 08:56:57;;;;;;;11.13;5.75;;;42.00;37.70;;;;;;5134734;27;20508;-69
2023/08/22 08:59:23;;;;;;;11.57;6.18;;;41.70;38.70;;;;;;5134738;27;20027;-70
2023/08/22 09:01:52;;;;;;;7.70;5.93;;;41.50;39.60;;;;;;5134237;27;20038;-70
2023/08/22 09:04:19;;;;;;;6.85;5.10;;;41.10;39.60;;;;;;5134643;27;20019;-69
2023/08/22 09:06:46;;;;;;;8.57;5.82;;;40.90;39.50;;;;;;5134135;27;20391;-69
2023/08/22 09:09:12;;;;;;;8.98;5.75;;;40.90;39.20;;;;;;5115922;27;20072;-70
2023/08/22 09:11:46;;;;;;;8.45;5.72;;;40.50;39.80;;;;;;5134530;27;20045;-70
2023/08/22 09:14:17;;;;;;;13.50;6.50;;;40.20;39.80;;;;;;5134584;27;20049;-69
2023/08/22 09:16:42;;;;;;;10.07;6.13;;;39.70;40.40;;;;;;5133909;27;20039;-69
2023/08/22 09:19:10;;;;;;;14.10;5.57;;;39.20;41.30;;;;;;5134049;27;20102;-69
2023/08/22 09:21:36;;;;;;;9.30;6.22;;;38.70;41.60;;;;;;5134264;27;20042;-69
2023/08/22 09:24:09;;;;;;;10.70;5.70;;;38.40;42.10;;;;;;5133977;27;20452;-70
2023/08/22 09:26:35;;;;;;;9.35;6.07;;;38.40;42.80;;;;;;5134238;27;20046;-69
2023/08/22 09:29:05;;;;;;;9.45;7.53;;;38.30;42.50;;;;;;5115521;27;20027;-69
2023/08/22 09:31:32;;;;;;;10.27;5.43;;;38.30;43.10;;;;;;5134297;27;20023;-69
2023/08/22 09:33:58;;;;;;;11.15;5.75;;;38.40;43.20;;;;;;5133589;27;20035;-70
2023/08/22 09:36:24;;;;;;;9.52;5.40;;;38.20;42.30;;;;;;5133863;27;20027;-69
2023/08/22 09:38:59;;;;;;;14.40;5.97;;;37.90;43.00;;;;;;5133637;27;20162;-69
2023/08/22 09:41:28;;;;;;;12.68;5.95;;;38.00;44.10;;;;;;5134152;27;20023;-70
2023/08/22 09:44:00;;;;;;;7.97;5.90;;;38.10;43.00;;;;;;5133301;27;20023;-70
2023/08/22 09:46:27;;;;;;;12.85;5.40;;;38.10;42.60;;;;;;5133990;27;20088;-69
2023/08/22 09:48:55;;;;;;;10.95;5.95;;;38.10;43.60;;;;;;5132439;27;20027;-70
2023/08/22 09:51:21;;;;;;;12.25;5.30;;;38.00;42.80;;;;;;5133552;27;20027;-69
2023/08/22 09:53:51;;;;;;;7.75;5.10;;;38.10;42.90;;;;;;5114162;28;20030;-69
2023/08/22 09:56:20;;;;;;;7.38;5.60;;;38.10;42.60;;;;;;5113100;28;20043;-69
2023/08/22 09:58:47;;;;;;;9.25;5.30;;;37.90;42.10;;;;;;5112611;28;20361;-70
2023/08/22 10:01:16;;;;;;;8.48;5.90;;;37.70;43.20;;;;;;5113311;28;20080;-70
2023/08/22 10:03:43;;;;;;;12.73;5.47;;;37.80;43.50;;;;;;5112690;28;20092;-70
2023/08/22 10:06:12;;;;;;;8.95;5.68;;;37.80;43.10;;;;;;5113018;28;20057;-70
2023/08/22 10:08:38;;;;;;;9.30;5.60;;;37.80;43.50;;;;;;5113065;28;20049;-69
2023/08/22 10:11:06;;;;;;;8.23;6.18;;;37.80;42.40;;;;;;5112177;28;20509;-69
2023/08/22 10:13:32;;;;;;;7.30;5.70;;;37.70;42.80;;;;;;5112756;28;20027;-69
2023/08/22 10:15:59;;;;;;;13.95;5.78;;;37.70;43.20;;;;;;5112150;28;20024;-70
2023/08/22 10:18:25;;;;;;;9.73;5.70;;;37.80;43.20;;;;;;5094300;28;20024;-68
2023/08/22 10:20:53;;;;;;;12.27;5.88;;;37.80;43.10;;;;;;5112613;28;20104;-70
2023/08/22 10:24:00;;;;;;;11.55;5.60;;;37.80;43.10;;;;;;5112939;28;20345;-68
2023/08/22 10:26:46;;;;;;;12.38;5.55;;;37.40;42.50;;;;;;5112739;28;20067;-69
2023/08/22 10:29:16;;;;;;;18.92;5.82;;;37.40;43.20;;;;;;5112922;28;20028;-69
2023/08/22 10:32:00;;;;;;;8.10;5.43;;;37.50;43.00;;;;;;5112484;28;20487;-69
2023/08/22 10:34:26;;;;;;;7.18;5.50;;;37.60;43.00;;;;;;5112787;28;20028;-70
2023/08/22 10:37:04;;;;;;;9.15;5.45;;;37.60;43.10;;;;;;5112160;28;20030;-69
2023/08/22 10:39:41;;;;;;;8.43;5.53;;;37.60;42.70;;;;;;5113166;28;20049;-69
2023/08/22 10:42:14;;;;;;;5.90;5.13;;;37.60;42.50;;;;;;5127167;28;20459;-69
2023/08/22 10:44:41;;;;;;;7.82;5.45;;;37.60;42.70;;;;;;5133233;28;20028;-69
2023/08/22 10:47:23;;;;;;;7.85;5.18;;;37.50;41.50;;;;;;5132844;28;20060;-68
2023/08/22 10:49:50;;;;;;;6.53;5.43;;;37.50;42.00;;;;;;5132307;27;20051;-69
2023/08/22 10:52:16;;;;;;;8.98;5.32;;;37.50;41.90;;;;;;5133209;28;20050;-69
2023/08/22 10:55:01;;;;;;;7.20;5.28;;;37.60;42.10;;;;;;5133068;28;20077;-70
2023/08/22 10:57:28;;;;;;;12.27;5.15;;;37.30;41.40;;;;;;5133508;28;20027;-70
2023/08/22 11:00:24;;;;;;;7.82;5.93;;;37.30;42.60;;;;;;5135728;27;20034;-70
2023/08/22 11:02:59;;;;;;;7.07;4.95;;;37.40;42.00;;;;;;5127228;27;20072;-70
2023/08/22 11:05:26;;;;;;;8.85;5.30;;;37.40;41.90;;;;;;5136957;27;20019;-70
2023/08/22 11:07:52;;;;;;;8.48;5.53;;;37.40;42.10;;;;;;5136513;27;20031;-70
2023/08/22 11:10:23;;;;;;;11.88;5.50;;;37.50;41.90;;;;;;5136882;27;20038;-70
2023/08/22 11:12:50;;;;;;;10.07;5.25;;;37.50;41.80;;;;;;5136567;27;20019;-69
2023/08/22 11:15:19;;;;;;;11.10;5.38;;;37.50;41.40;;;;;;5136550;27;20031;-70
2023/08/22 11:17:50;;;;;;;11.82;5.10;;;37.50;41.30;;;;;;5136819;27;20038;-70
2023/08/22 11:20:17;;;;;;;8.48;5.22;;;37.60;41.20;;;;;;5136678;27;20085;-70
2023/08/22 11:22:43;;;;;;;7.85;4.85;;;37.60;41.40;;;;;;5136266;27;20481;-70
2023/08/22 11:25:11;;;;;;;5.57;5.00;;;37.60;41.50;;;;;;5136502;27;20019;-70
2023/08/22 11:27:38;;;;;;;10.45;5.70;;;37.70;41.30;;;;;;5136656;27;20480;-69
2023/08/22 11:30:05;;;;;;;13.50;4.90;;;37.60;40.60;;;;;;5136222;27;20023;-70
2023/08/22 11:32:32;;;;;;;6.95;4.85;;;37.40;41.40;;;;;;5136480;27;20364;-69
2023/08/22 11:35:04;;;;;;;6.80;4.68;;;37.40;41.60;;;;;;5135692;27;20055;-69
2023/08/22 11:37:34;;;;;;;10.65;4.95;;;37.50;41.10;;;;;;5136270;27;20047;-69
2023/08/22 11:40:00;;;;;;;8.63;4.68;;;37.60;41.50;;;;;;5135830;27;20019;-70
2023/08/22 11:42:30;;;;;;;7.10;4.50;;;37.50;40.90;;;;;;5136396;27;20035;-70
2023/08/22 11:45:08;;;;;;;11.53;4.47;;;37.50;40.50;;;;;;5135841;27;20098;-70
2023/08/22 11:47:41;;;;;;;6.32;4.50;;;37.40;39.80;;;;;;5136150;27;20036;-69
2023/08/22 11:50:18;;;;;;;7.43;4.82;;;37.40;39.90;;;;;;5135281;27;20047;-69
2023/08/22 11:52:45;;;;;;;9.02;4.15;;;37.30;40.30;;;;;;5136198;27;20031;-69
2023/08/22 11:55:14;;;;;;;5.97;4.45;;;37.20;40.20;;;;;;5135928;27;20072;-69
2023/08/22 11:57:42;;;;;;;9.63;4.77;;;37.30;40.20;;;;;;5126885;27;20403;-69
2023/08/22 12:00:10;;;;;;;6.53;4.60;;;37.30;40.90;;;;;;5096560;28;20443;-70
2023/08/22 12:02:37;;;;;;;11.30;4.70;;;37.40;40.50;;;;;;5115360;28;20049;-69
2023/08/22 12:05:03;;;;;;;6.30;4.55;;;37.50;40.30;;;;;;5114573;28;20460;-68
2023/08/22 12:07:29;;;;;;;8.75;4.55;;;37.50;40.70;;;;;;5115170;28;20074;-69
2023/08/22 12:09:59;;;;;;;11.02;4.55;;;37.60;41.00;;;;;;5114150;28;20051;-70
2023/08/22 12:12:25;;;;;;;7.80;4.55;;;37.70;40.80;;;;;;5114998;28;20020;-70
2023/08/22 12:14:51;;;;;;;14.38;4.75;;;37.60;40.90;;;;;;5114775;28;20050;-71
2023/08/22 12:17:18;;;;;;;8.32;4.00;;;37.60;40.80;;;;;;5114666;28;20027;-69
2023/08/22 12:19:44;;;;;;;7.43;4.07;;;37.50;39.40;;;;;;5114905;28;20088;-69
2023/08/22 12:22:10;;;;;;;8.23;4.28;;;37.30;38.70;;;;;;5114551;28;20111;-69
2023/08/22 12:24:36;;;;;;;12.32;4.13;;;37.00;38.90;;;;;;5114757;28;20049;-69
2023/08/22 12:27:01;;;;;;;10.10;3.95;;;36.90;39.90;;;;;;5114314;28;20036;-69
2023/08/22 12:29:27;;;;;;;9.75;4.13;;;36.90;39.30;;;;;;5115185;28;20031;-70
2023/08/22 12:31:52;;;;;;;9.30;4.30;;;36.80;39.70;;;;;;5114210;28;20115;-71
2023/08/22 12:34:18;;;;;;;8.35;4.22;;;36.80;40.00;;;;;;5114552;28;20019;-70
2023/08/22 12:36:44;;;;;;;6.80;3.78;;;36.70;40.20;;;;;;5115070;28;20035;-69
2023/08/22 12:39:11;;;;;;;7.53;3.75;;;36.70;40.20;;;;;;5114081;28;20434;-70
2023/08/22 12:41:38;;;;;;;11.25;3.88;;;36.70;40.60;;;;;;5114575;28;20108;-69
2023/08/22 12:44:04;;;;;;;9.30;4.32;;;36.60;40.80;;;;;;5119615;27;20092;-70